Time;durP1;ratioP1;P1;durP2;ratioP2;P2;SDS_P1;SDS_P2;PMS_P1;PMS_P2;Temp;Humidity;BMP_temperature;BMP_pressure;BME280_temperature;BME280_humidity;BME280_pressure;Samples;Min_cycle;Max_cycle;Signal;HPM_P1;HPM_P2
2022/05/03 00:01:33;;;;;;;0.60;0.60;;;10.50;99.90;;;;;;5051883;28;20282;-77
2022/05/03 00:04:23;;;;;;;0.60;0.60;;;10.50;99.90;;;;;;5052058;28;20171;-76
2022/05/03 00:07:26;;;;;;;0.60;0.60;;;10.40;99.90;;;;;;5052010;28;20174;-75
2022/05/03 00:10:13;;;;;;;0.60;0.60;;;10.40;99.90;;;;;;5051287;28;20174;-74
2022/05/03 00:12:47;;;;;;;0.53;0.53;;;10.40;99.90;;;;;;5051739;28;20312;-74
2022/05/03 00:15:16;;;;;;;0.70;0.70;;;10.30;99.90;;;;;;5052204;28;20210;-74
2022/05/03 00:17:42;;;;;;;0.50;0.50;;;10.30;99.90;;;;;;5051351;28;20182;-76
2022/05/03 00:20:08;;;;;;;0.70;0.70;;;10.30;99.90;;;;;;5051055;28;20175;-76
2022/05/03 00:22:35;;;;;;;0.40;0.40;;;10.20;99.90;;;;;;5051413;28;20195;-77
2022/05/03 00:25:01;;;;;;;0.60;0.60;;;10.10;99.90;;;;;;5051695;28;20202;-75
2022/05/03 00:27:27;;;;;;;0.70;0.70;;;10.10;99.90;;;;;;5051525;28;20558;-76
2022/05/03 00:29:54;;;;;;;0.50;0.50;;;10.00;99.90;;;;;;5050822;28;20644;-75
2022/05/03 00:32:24;;;;;;;0.60;0.60;;;10.10;99.90;;;;;;5051666;28;20286;-75
2022/05/03 00:34:50;;;;;;;0.60;0.60;;;9.90;99.90;;;;;;5051403;28;20323;-75
2022/05/03 00:37:15;;;;;;;0.60;0.60;;;9.90;99.90;;;;;;5051574;28;20551;-74
2022/05/03 00:39:41;;;;;;;0.60;0.60;;;10.00;99.90;;;;;;5050670;28;20171;-73
2022/05/03 00:42:20;;;;;;;0.60;0.60;;;10.00;99.90;;;;;;5051477;28;20198;-74
2022/05/03 00:45:11;;;;;;;0.70;0.70;;;9.90;99.90;;;;;;5051241;28;20174;-74
2022/05/03 00:47:54;;;;;;;0.60;0.60;;;9.90;99.90;;;;;;5051554;28;20193;-74
2022/05/03 00:50:33;;;;;;;0.60;0.60;;;10.00;99.90;;;;;;5050623;28;20669;-74
2022/05/03 00:53:08;;;;;;;0.60;0.60;;;10.00;99.90;;;;;;5051322;28;20210;-73
2022/05/03 00:55:45;;;;;;;0.70;0.70;;;10.00;99.90;;;;;;5053253;28;20698;-74
2022/05/03 00:58:36;;;;;;;0.50;0.50;;;9.80;99.90;;;;;;5053072;28;20179;-74
2022/05/03 01:01:09;;;;;;;0.80;0.80;;;9.70;99.90;;;;;;5051146;28;20244;-74
2022/05/03 01:03:54;;;;;;;0.70;0.70;;;9.80;99.90;;;;;;5051413;28;20232;-74
2022/05/03 01:06:36;;;;;;;0.57;0.57;;;9.80;99.90;;;;;;5051186;28;20645;-75
2022/05/03 01:09:05;;;;;;;0.67;0.67;;;9.80;99.90;;;;;;5050847;28;20270;-74
2022/05/03 01:11:35;;;;;;;0.80;0.80;;;9.80;99.90;;;;;;5051099;28;20194;-75
2022/05/03 01:14:34;;;;;;;0.57;0.57;;;9.60;99.90;;;;;;5051112;28;20205;-74
2022/05/03 01:17:05;;;;;;;0.80;0.80;;;9.60;99.90;;;;;;5051155;28;20198;-75
2022/05/03 01:19:39;;;;;;;0.60;0.60;;;9.30;99.90;;;;;;5049321;28;20176;-75
2022/05/03 01:22:36;;;;;;;0.60;0.60;;;9.30;99.90;;;;;;5050767;28;20191;-76
2022/05/03 01:25:16;;;;;;;0.70;0.70;;;9.30;99.90;;;;;;5051049;28;20180;-76
2022/05/03 01:28:00;;;;;;;0.53;0.53;;;9.20;99.90;;;;;;5050772;28;20694;-76
2022/05/03 01:30:29;;;;;;;0.77;0.77;;;9.00;99.90;;;;;;5050259;28;20278;-74
2022/05/03 01:33:05;;;;;;;0.70;0.70;;;9.00;99.90;;;;;;5051074;28;20214;-75
2022/05/03 01:35:45;;;;;;;0.70;0.70;;;8.90;99.90;;;;;;5050901;28;20214;-74
2022/05/03 01:38:49;;;;;;;0.70;0.70;;;8.80;99.90;;;;;;5050764;28;20191;-74
2022/05/03 01:41:23;;;;;;;0.70;0.70;;;8.90;99.90;;;;;;5050231;28;20552;-74
2022/05/03 01:44:13;;;;;;;0.60;0.60;;;8.80;99.90;;;;;;5050999;28;20624;-75
2022/05/03 01:46:39;;;;;;;0.80;0.80;;;8.80;99.90;;;;;;5050699;28;20230;-74
2022/05/03 01:52:16;;;;;;;0.80;0.80;;;8.80;99.90;;;;;;5037247;28;20261;-74
2022/05/03 01:55:04;;;;;;;0.63;0.63;;;8.60;99.90;;;;;;5054272;28;20171;-75
2022/05/03 01:58:03;;;;;;;0.63;0.63;;;8.60;99.90;;;;;;5054179;28;20668;-75
2022/05/03 02:00:33;;;;;;;0.67;0.67;;;8.60;99.90;;;;;;5035938;28;20203;-74
2022/05/03 02:03:03;;;;;;;0.60;0.60;;;8.50;99.90;;;;;;5054215;28;20181;-75
2022/05/03 02:05:58;;;;;;;0.60;0.60;;;8.50;99.90;;;;;;5054118;28;20225;-74
2022/05/03 02:08:30;;;;;;;0.60;0.60;;;8.50;99.90;;;;;;5054329;28;20179;-75
2022/05/03 02:11:07;;;;;;;0.60;0.60;;;8.30;99.90;;;;;;5053594;28;20206;-75
2022/05/03 02:17:14;;;;;;;0.63;0.63;;;8.20;99.90;;;;;;5053862;28;20272;-75
2022/05/03 02:20:12;;;;;;;0.60;0.60;;;8.20;99.90;;;;;;5039027;28;20228;-74
2022/05/03 02:22:55;;;;;;;0.60;0.60;;;8.20;99.90;;;;;;5053669;28;20171;-74
2022/05/03 02:25:38;;;;;;;0.70;0.70;;;8.20;99.90;;;;;;5053941;28;20206;-74
2022/05/03 02:28:45;;;;;;;0.60;0.60;;;8.20;99.90;;;;;;5053762;28;20179;-74
2022/05/03 02:31:18;;;;;;;0.70;0.70;;;8.00;99.90;;;;;;5053280;28;20309;-74
2022/05/03 02:33:52;;;;;;;0.70;0.70;;;7.80;99.90;;;;;;5053493;28;20598;-74
2022/05/03 02:36:23;;;;;;;0.60;0.60;;;7.70;99.90;;;;;;5053544;28;20210;-74
2022/05/03 02:39:09;;;;;;;0.60;0.60;;;7.60;99.90;;;;;;5053366;28;20187;-74
2022/05/03 02:41:39;;;;;;;0.60;0.60;;;7.70;99.90;;;;;;5053545;28;20203;-75
2022/05/03 02:44:05;;;;;;;0.70;0.70;;;7.80;99.90;;;;;;5053560;28;20229;-75
2022/05/03 02:47:03;;;;;;;0.60;0.60;;;7.70;99.90;;;;;;5053357;28;20225;-75
2022/05/03 02:49:46;;;;;;;0.63;0.63;;;7.80;99.90;;;;;;5052719;28;20186;-74
2022/05/03 02:52:40;;;;;;;0.60;0.60;;;7.80;99.90;;;;;;5053216;28;20211;-74
2022/05/03 02:55:18;;;;;;;0.80;0.80;;;7.70;99.90;;;;;;5045830;28;20215;-74
2022/05/03 02:58:05;;;;;;;0.60;0.60;;;7.70;99.90;;;;;;5053254;28;20175;-74
2022/05/03 03:03:46;;;;;;;0.70;0.70;;;7.60;99.90;;;;;;5052881;28;20715;-74
2022/05/03 03:06:22;;;;;;;0.70;0.70;;;7.60;99.90;;;;;;5052749;28;20217;-74
2022/05/03 03:08:54;;;;;;;0.80;0.80;;;7.60;99.90;;;;;;5052990;28;20190;-74
2022/05/03 03:11:34;;;;;;;0.70;0.70;;;7.70;99.90;;;;;;5052847;28;20187;-74
2022/05/03 03:14:35;;;;;;;0.80;0.80;;;7.70;99.90;;;;;;5052729;28;20207;-74
2022/05/03 03:17:05;;;;;;;0.70;0.70;;;7.50;99.90;;;;;;5052754;28;20194;-74
2022/05/03 03:19:51;;;;;;;0.60;0.60;;;7.30;99.90;;;;;;5052040;28;20179;-74
2022/05/03 03:22:21;;;;;;;0.70;0.70;;;7.30;99.90;;;;;;5052438;28;20198;-74
2022/05/03 03:24:48;;;;;;;0.70;0.70;;;7.50;99.90;;;;;;5052565;28;20182;-74
2022/05/03 03:27:14;;;;;;;0.70;0.70;;;7.70;99.90;;;;;;5052292;28;20178;-75
2022/05/03 03:29:41;;;;;;;0.70;0.70;;;7.70;99.90;;;;;;5052113;28;20189;-74
2022/05/03 03:32:09;;;;;;;0.70;0.70;;;7.60;99.90;;;;;;5052323;28;20213;-74
2022/05/03 03:34:39;;;;;;;0.70;0.70;;;7.60;99.90;;;;;;5052371;28;20253;-74
2022/05/03 03:37:07;;;;;;;0.70;0.70;;;7.60;99.90;;;;;;5052151;28;20175;-74
2022/05/03 03:39:33;;;;;;;0.70;0.70;;;7.60;99.90;;;;;;5051682;28;20167;-74
2022/05/03 03:42:01;;;;;;;0.70;0.70;;;7.40;99.90;;;;;;5058831;28;20248;-74
2022/05/03 03:44:28;;;;;;;0.70;0.70;;;7.30;99.90;;;;;;5072148;28;20181;-74
2022/05/03 03:46:55;;;;;;;0.80;0.80;;;7.30;99.90;;;;;;5072059;28;20564;-75
2022/05/03 03:49:20;;;;;;;0.67;0.67;;;7.30;99.90;;;;;;5071395;28;20222;-75
2022/05/03 03:51:47;;;;;;;0.70;0.70;;;7.20;99.90;;;;;;5071867;28;20194;-75
2022/05/03 03:54:13;;;;;;;0.70;0.70;;;7.30;99.90;;;;;;5071882;28;20206;-75
2022/05/03 03:56:39;;;;;;;0.73;0.73;;;7.20;99.90;;;;;;5071956;28;20269;-75
2022/05/03 03:59:05;;;;;;;0.80;0.80;;;7.30;99.90;;;;;;5071614;28;20642;-75
2022/05/03 04:01:31;;;;;;;0.70;0.70;;;7.20;99.90;;;;;;5072329;28;20230;-75
2022/05/03 04:03:58;;;;;;;0.80;0.80;;;7.10;99.90;;;;;;5072509;28;20221;-76
2022/05/03 04:06:24;;;;;;;0.63;0.63;;;7.20;99.90;;;;;;5073281;28;20182;-74
2022/05/03 04:08:49;;;;;;;0.60;0.60;;;7.10;99.90;;;;;;5075230;28;20182;-77
2022/05/03 04:11:18;;;;;;;0.70;0.70;;;7.00;99.90;;;;;;5075691;28;20198;-75
2022/05/03 04:13:45;;;;;;;0.70;0.70;;;7.00;99.90;;;;;;5074557;28;20178;-75
2022/05/03 04:16:11;;;;;;;0.63;0.63;;;7.00;99.90;;;;;;5072217;28;20237;-75
2022/05/03 04:18:46;;;;;;;0.70;0.70;;;7.20;99.90;;;;;;5071556;28;20178;-76
2022/05/03 04:21:13;;;;;;;0.80;0.80;;;7.20;99.90;;;;;;5070879;28;20216;-76
2022/05/03 04:23:38;;;;;;;0.70;0.70;;;7.20;99.90;;;;;;5071418;28;20643;-75
2022/05/03 04:26:04;;;;;;;0.70;0.70;;;7.30;99.90;;;;;;5071541;28;20189;-76
2022/05/03 04:28:29;;;;;;;0.70;0.70;;;7.40;99.90;;;;;;5071328;28;20178;-75
2022/05/03 04:30:55;;;;;;;0.70;0.70;;;7.50;99.90;;;;;;5070905;28;20198;-75
2022/05/03 04:33:20;;;;;;;0.70;0.70;;;8.00;99.90;;;;;;5071321;28;20185;-75
2022/05/03 04:35:46;;;;;;;0.80;0.80;;;8.30;99.90;;;;;;5071101;28;20206;-75
2022/05/03 04:38:12;;;;;;;0.70;0.70;;;8.40;99.90;;;;;;5071020;28;20198;-75
2022/05/03 04:40:37;;;;;;;0.63;0.63;;;8.10;99.90;;;;;;5070789;28;20194;-76
2022/05/03 04:43:02;;;;;;;0.67;0.67;;;8.00;99.90;;;;;;5071244;28;20702;-75
2022/05/03 04:45:28;;;;;;;0.70;0.70;;;8.10;99.90;;;;;;5071185;28;20219;-76
2022/05/03 04:47:53;;;;;;;0.70;0.70;;;8.30;99.90;;;;;;5071247;28;20178;-77
2022/05/03 04:50:19;;;;;;;0.60;0.60;;;8.60;99.90;;;;;;5070475;28;20672;-76
2022/05/03 04:52:44;;;;;;;0.70;0.70;;;8.30;99.90;;;;;;5071397;28;20212;-75
2022/05/03 04:55:10;;;;;;;0.60;0.60;;;8.10;99.90;;;;;;5071111;28;20226;-76
2022/05/03 04:57:36;;;;;;;0.80;0.80;;;7.90;99.90;;;;;;5071221;28;20267;-76
2022/05/03 05:00:03;;;;;;;0.60;0.60;;;8.00;99.90;;;;;;5070632;28;20171;-76
2022/05/03 05:02:28;;;;;;;0.70;0.70;;;8.00;99.90;;;;;;5070941;28;20228;-76
2022/05/03 05:04:54;;;;;;;0.60;0.60;;;8.00;99.90;;;;;;5070896;28;20196;-76
2022/05/03 05:07:19;;;;;;;0.70;0.70;;;8.20;99.90;;;;;;5070993;28;20189;-76
2022/05/03 05:12:32;;;;;;;0.70;0.70;;;8.50;99.90;;;;;;5071223;28;20185;-76
2022/05/03 05:14:58;;;;;;;0.60;0.60;;;8.70;99.90;;;;;;5070786;28;20207;-77
2022/05/03 05:17:23;;;;;;;0.70;0.70;;;8.80;99.90;;;;;;5072320;28;20187;-76
2022/05/03 05:19:49;;;;;;;0.60;0.60;;;8.80;99.90;;;;;;5070562;28;20198;-76
2022/05/03 05:22:14;;;;;;;0.67;0.67;;;8.90;99.90;;;;;;5070890;28;20201;-77
2022/05/03 05:24:40;;;;;;;0.63;0.63;;;9.20;99.90;;;;;;5071606;28;20182;-76
2022/05/03 05:27:05;;;;;;;0.60;0.60;;;9.40;99.90;;;;;;5074869;28;20658;-76
2022/05/03 05:29:31;;;;;;;0.67;0.67;;;9.50;99.90;;;;;;5074196;28;20166;-76
2022/05/03 05:31:57;;;;;;;0.67;0.67;;;9.50;99.90;;;;;;5074761;28;20256;-76
2022/05/03 05:34:22;;;;;;;0.60;0.60;;;9.50;99.90;;;;;;5074448;28;20186;-76
2022/05/03 05:36:48;;;;;;;0.60;0.60;;;9.20;99.90;;;;;;5074700;28;20206;-77
2022/05/03 05:39:14;;;;;;;0.60;0.60;;;8.90;99.90;;;;;;5074163;28;20565;-77
2022/05/03 05:41:40;;;;;;;0.70;0.70;;;9.20;99.90;;;;;;5074489;28;20193;-75
2022/05/03 05:44:05;;;;;;;0.70;0.70;;;9.30;99.90;;;;;;5074404;28;20706;-76
2022/05/03 05:46:31;;;;;;;0.70;0.70;;;9.40;99.90;;;;;;5074458;28;20320;-77
2022/05/03 05:48:56;;;;;;;0.70;0.70;;;9.30;99.90;;;;;;5073595;28;20171;-77
2022/05/03 05:51:22;;;;;;;0.70;0.70;;;9.40;99.90;;;;;;5074124;28;20727;-76
2022/05/03 05:53:47;;;;;;;0.60;0.60;;;9.50;99.90;;;;;;5056605;28;20243;-77
2022/05/03 05:56:14;;;;;;;0.77;0.77;;;10.00;99.90;;;;;;5074396;28;20214;-75
2022/05/03 05:58:40;;;;;;;0.60;0.60;;;10.30;99.90;;;;;;5073852;28;20175;-76
2022/05/03 06:01:05;;;;;;;0.60;0.60;;;10.50;99.90;;;;;;5073989;28;20213;-72
2022/05/03 06:03:32;;;;;;;0.50;0.50;;;10.60;99.90;;;;;;5074067;28;20662;-72
2022/05/03 06:05:58;;;;;;;0.60;0.60;;;10.30;99.90;;;;;;5073951;28;20549;-73
2022/05/03 06:08:24;;;;;;;0.60;0.60;;;10.60;99.90;;;;;;5074302;28;20273;-72
2022/05/03 06:10:49;;;;;;;0.60;0.60;;;10.80;99.90;;;;;;5074017;28;20198;-73
2022/05/03 06:13:15;;;;;;;0.70;0.70;;;10.80;57.80;;;;;;5074147;28;20175;-74
2022/05/03 06:15:41;;;;;;;0.60;0.60;;;11.00;85.50;;;;;;5074112;28;20210;-73
2022/05/03 06:18:10;;;;;;;0.50;0.50;;;11.00;89.40;;;;;;5077484;28;20175;-74
2022/05/03 06:20:36;;;;;;;0.60;0.60;;;10.80;96.70;;;;;;5081770;28;20244;-73
2022/05/03 06:23:03;;;;;;;0.60;0.60;;;10.60;99.90;;;;;;5079672;28;20265;-74
2022/05/03 06:25:29;;;;;;;0.40;0.40;;;10.80;99.90;;;;;;5073906;28;20174;-73
2022/05/03 06:27:54;;;;;;;0.50;0.50;;;11.00;41.30;;;;;;5077391;28;20181;-74
2022/05/03 06:30:20;;;;;;;0.50;0.50;;;11.30;27.00;;;;;;5072555;28;20177;-74
2022/05/03 06:32:45;;;;;;;0.50;0.50;;;11.50;1.00;;;;;;5073019;28;20288;-74
2022/05/03 06:35:12;;;;;;;0.60;0.60;;;11.10;7.80;;;;;;5073135;28;20213;-74
2022/05/03 06:37:39;;;;;;;0.60;0.60;;;11.60;1.00;;;;;;5069686;28;20236;-77
2022/05/03 06:40:09;;;;;;;0.60;0.60;;;11.70;1.00;;;;;;5071999;28;20185;-73
2022/05/03 06:42:36;;;;;;;0.60;0.60;;;11.80;1.00;;;;;;5064856;28;20645;-72
2022/05/03 06:45:02;;;;;;;0.50;0.50;;;12.00;1.00;;;;;;5069813;28;20277;-73
2022/05/03 06:47:28;;;;;;;0.50;0.50;;;12.10;1.00;;;;;;5066615;28;20262;-73
2022/05/03 06:49:53;;;;;;;0.50;0.50;;;12.40;1.00;;;;;;5062424;28;20257;-75
2022/05/03 06:52:20;;;;;;;0.50;0.50;;;12.20;1.00;;;;;;5058423;28;20688;-72
2022/05/03 06:54:45;;;;;;;0.60;0.60;;;12.20;1.00;;;;;;5067222;28;20269;-72
2022/05/03 06:57:11;;;;;;;0.40;0.40;;;12.30;1.00;;;;;;5066170;28;20266;-72
2022/05/03 06:59:36;;;;;;;0.50;0.50;;;12.30;1.00;;;;;;5060253;28;20175;-73
2022/05/03 07:02:02;;;;;;;0.40;0.40;;;12.60;1.00;;;;;;5064106;28;20187;-73
2022/05/03 07:04:27;;;;;;;0.50;0.50;;;13.00;1.00;;;;;;5068097;28;20170;-72
2022/05/03 07:06:53;;;;;;;0.50;0.50;;;13.00;1.00;;;;;;5070635;28;20527;-73
2022/05/03 07:09:18;;;;;;;0.50;0.50;;;13.10;1.00;;;;;;5070104;28;20210;-72
2022/05/03 07:11:44;;;;;;;0.50;0.50;;;12.90;1.00;;;;;;5070021;28;20199;-72
2022/05/03 07:14:09;;;;;;;0.43;0.43;;;13.30;1.00;;;;;;5070231;28;20171;-73
2022/05/03 07:16:35;;;;;;;0.47;0.47;;;13.50;99.90;;;;;;5070758;28;20305;-74
2022/05/03 07:24:29;;;;;;;0.50;0.50;;;14.30;1.00;;;;;;5066798;28;20550;-75
2022/05/03 07:26:55;;;;;;;0.47;0.47;;;14.40;1.00;;;;;;5070289;28;20285;-74
2022/05/03 07:29:20;;;;;;;0.40;0.40;;;14.80;99.90;;;;;;5066449;28;20179;-73
2022/05/03 07:31:47;;;;;;;0.50;0.50;;;14.90;1.00;;;;;;5057752;28;20206;-72
2022/05/03 07:34:12;;;;;;;0.47;0.47;;;15.00;99.90;;;;;;5062207;28;20171;-72
2022/05/03 07:36:39;;;;;;;0.40;0.40;;;14.80;1.00;;;;;;5072314;28;20237;-72
2022/05/03 07:39:05;;;;;;;0.40;0.40;;;14.90;97.10;;;;;;5071531;28;20193;-73
2022/05/03 07:41:30;;;;;;;0.30;0.30;;;15.40;1.00;;;;;;5072274;28;20202;-73
2022/05/03 07:43:56;;;;;;;0.40;0.40;;;15.30;1.00;;;;;;5069102;28;20179;-72
2022/05/03 07:46:21;;;;;;;0.40;0.40;;;15.00;99.90;;;;;;5070266;28;20182;-72
2022/05/03 07:48:47;;;;;;;0.50;0.50;;;15.00;1.00;;;;;;5070908;28;20258;-72
2022/05/03 07:51:13;;;;;;;0.40;0.40;;;15.40;99.90;;;;;;5071554;28;20247;-72
2022/05/03 07:53:39;;;;;;;0.40;0.40;;;15.70;1.00;;;;;;5071866;28;20202;-73
2022/05/03 07:56:05;;;;;;;0.40;0.40;;;15.40;1.00;;;;;;5062385;28;20727;-73
2022/05/03 07:58:31;;;;;;;0.40;0.40;;;15.30;1.00;;;;;;5052033;28;20187;-73
2022/05/03 08:00:56;;;;;;;0.40;0.40;;;15.70;1.00;;;;;;5068559;28;20191;-73
2022/05/03 08:03:22;;;;;;;0.40;0.40;;;15.90;1.00;;;;;;5071622;28;20178;-74
2022/05/03 08:05:47;;;;;;;0.50;0.50;;;15.70;1.00;;;;;;5071507;28;20162;-73
2022/05/03 08:08:13;;;;;;;0.40;0.40;;;15.60;1.00;;;;;;5071488;28;20643;-73
2022/05/03 08:10:38;;;;;;;0.30;0.30;;;15.70;1.00;;;;;;5071059;28;20225;-74
2022/05/03 08:13:04;;;;;;;0.40;0.40;;;16.00;99.90;;;;;;5071386;28;20167;-72
2022/05/03 08:15:30;;;;;;;0.40;0.40;;;16.30;99.90;;;;;;5070940;28;20218;-73
2022/05/03 08:17:55;;;;;;;0.40;0.40;;;16.60;1.00;;;;;;5053024;28;20265;-74
2022/05/03 08:20:21;;;;;;;0.30;0.30;;;16.80;99.90;;;;;;5070639;28;20178;-76
2022/05/03 08:22:46;;;;;;;0.40;0.40;;;17.00;99.90;;;;;;5066093;28;20177;-76
2022/05/03 08:25:12;;;;;;;0.50;0.50;;;17.30;99.90;;;;;;5071920;28;20265;-78
2022/05/03 08:27:40;;;;;;;0.33;0.33;;;17.40;99.90;;;;;;5072878;28;20575;-77
2022/05/03 08:30:07;;;;;;;0.33;0.33;;;17.70;99.90;;;;;;5070788;28;20728;-76
2022/05/03 08:32:33;;;;;;;0.30;0.30;;;17.90;99.90;;;;;;5071441;28;20210;-77
2022/05/03 08:34:58;;;;;;;0.40;0.40;;;18.10;1.00;;;;;;5071405;28;20209;-77
2022/05/03 08:42:53;;;;;;;0.40;0.40;;;19.00;1.00;;;;;;5076864;28;20186;-78
2022/05/03 08:45:20;;;;;;;0.30;0.30;;;18.70;1.00;;;;;;5070767;28;20174;-75
2022/05/03 08:47:48;;;;;;;0.33;0.33;;;18.90;1.00;;;;;;5071597;28;20174;-76
2022/05/03 08:50:15;;;;;;;0.30;0.30;;;19.10;1.00;;;;;;5070812;28;20205;-75
2022/05/03 08:52:53;;;;;;;0.30;0.30;;;19.70;1.00;;;;;;5071529;28;20607;-76
2022/05/03 08:55:19;;;;;;;0.50;0.50;;;19.80;1.00;;;;;;5070339;28;20748;-78
2022/05/03 08:57:44;;;;;;;0.40;0.40;;;19.60;1.00;;;;;;5071148;28;20194;-77
2022/05/03 09:00:12;;;;;;;0.30;0.30;;;19.70;1.00;;;;;;5073612;28;20170;-74
2022/05/03 09:02:49;;;;;;;0.30;0.30;;;19.70;1.00;;;;;;5078321;28;20170;-78
2022/05/03 09:05:15;;;;;;;0.30;0.30;;;19.40;1.00;;;;;;5072147;28;20547;-78
2022/05/03 09:07:49;;;;;;;0.30;0.30;;;19.20;1.00;;;;;;5078316;28;20269;-76
2022/05/03 09:10:20;;;;;;;0.40;0.40;;;19.70;1.00;;;;;;5077445;28;20178;-75
2022/05/03 09:12:47;;;;;;;0.40;0.40;;;19.70;1.00;;;;;;5078190;28;20231;-75
2022/05/03 09:15:13;;;;;;;0.30;0.30;;;20.00;1.00;;;;;;5078088;28;20262;-75
2022/05/03 09:17:46;;;;;;;0.40;0.40;;;19.90;1.00;;;;;;5078359;28;20573;-75
2022/05/03 09:26:18;;;;;;;0.30;0.30;;;20.50;1.00;;;;;;5078629;28;20173;-77
2022/05/03 09:28:46;;;;;;;0.40;0.40;;;20.50;1.00;;;;;;5078161;28;20658;-75
2022/05/03 09:31:12;;;;;;;0.30;0.30;;;20.50;1.00;;;;;;5074741;28;20202;-76
2022/05/03 09:33:38;;;;;;;0.30;0.30;;;20.30;1.00;;;;;;5075032;28;20265;-75
2022/05/03 09:36:10;;;;;;;0.40;0.40;;;20.30;1.00;;;;;;5075351;28;20229;-75
2022/05/03 09:38:50;;;;;;;0.50;0.50;;;20.40;1.00;;;;;;5075058;28;20243;-77
2022/05/03 09:41:16;;;;;;;0.50;0.50;;;20.60;1.00;;;;;;5075203;28;20906;-77
2022/05/03 09:44:08;;;;;;;0.40;0.40;;;20.50;1.00;;;;;;5105205;22;20260;-77
2022/05/03 09:46:53;;;;;;;0.30;0.30;;;20.80;1.00;;;;;;5069339;28;20183;-76
2022/05/03 09:49:20;;;;;;;0.40;0.40;;;22.10;1.00;;;;;;5073068;28;20205;-79
2022/05/03 09:51:48;;;;;;;0.30;0.30;;;22.70;1.00;;;;;;5072069;28;20210;-79
2022/05/03 09:54:14;;;;;;;0.40;0.40;;;23.00;1.00;;;;;;5072989;28;20263;-78
2022/05/03 09:56:41;;;;;;;0.40;0.40;;;22.90;1.00;;;;;;5069796;28;20206;-78
2022/05/03 09:59:10;;;;;;;0.30;0.30;;;23.50;1.00;;;;;;5068450;28;20178;-77
2022/05/03 10:01:39;;;;;;;0.40;0.40;;;23.70;1.00;;;;;;5049290;28;20207;-76
2022/05/03 10:04:17;;;;;;;0.40;0.40;;;24.20;1.00;;;;;;5067969;28;20179;-76
2022/05/03 10:06:43;;;;;;;0.40;0.40;;;24.30;1.00;;;;;;5068974;28;20179;-77
2022/05/03 10:09:10;;;;;;;0.40;0.40;;;24.30;1.00;;;;;;5066983;28;20244;-76
2022/05/03 10:11:37;;;;;;;0.47;0.47;;;23.90;1.00;;;;;;5066812;28;20229;-77
2022/05/03 10:14:03;;;;;;;0.30;0.30;;;23.50;1.00;;;;;;5065085;28;20613;-77
2022/05/03 10:22:04;;;;;;;0.30;0.30;;;24.10;1.00;;;;;;5057857;28;20278;-76
2022/05/03 10:24:31;;;;;;;0.40;0.40;;;24.10;1.00;;;;;;5056349;28;20171;-76
2022/05/03 10:27:06;;;;;;;0.37;0.37;;;23.90;1.00;;;;;;5055631;28;20237;-74
2022/05/03 10:29:36;;;;;;;0.40;0.40;;;23.60;1.00;;;;;;5057492;28;20198;-74
2022/05/03 10:32:06;;;;;;;0.40;0.40;;;23.80;1.00;;;;;;5057532;28;20198;-75
2022/05/03 10:34:48;;;;;;;0.30;0.30;;;24.50;1.00;;;;;;5061894;28;20194;-76
2022/05/03 10:37:43;;;;;;;0.43;0.43;;;24.70;1.00;;;;;;5062817;28;20198;-76
2022/05/03 10:40:12;;;;;;;0.40;0.40;;;24.70;1.00;;;;;;5045715;28;20213;-76
2022/05/03 10:42:39;;;;;;;0.40;0.40;;;24.60;1.00;;;;;;5061680;28;20175;-77
2022/05/03 10:45:12;;;;;;;0.40;0.40;;;24.70;1.00;;;;;;5059313;28;20213;-75
2022/05/03 10:47:54;;;;;;;0.40;0.40;;;24.50;1.00;;;;;;5060012;28;20202;-77
2022/05/03 10:50:29;;;;;;;0.33;0.33;;;24.80;1.00;;;;;;5059381;28;20191;-77
2022/05/03 10:52:55;;;;;;;0.40;0.40;;;24.90;1.00;;;;;;5062544;28;20171;-78
2022/05/03 10:55:22;;;;;;;0.40;0.40;;;24.70;1.00;;;;;;5062774;28;20686;-78
2022/05/03 10:58:25;;;;;;;0.33;0.33;;;24.90;1.00;;;;;;5060087;28;20185;-78
2022/05/03 11:01:00;;;;;;;0.30;0.30;;;25.20;1.00;;;;;;5061190;28;20262;-77
2022/05/03 11:03:26;;;;;;;0.40;0.40;;;25.00;1.00;;;;;;5063464;28;20174;-77
2022/05/03 11:06:23;;;;;;;0.40;0.40;;;25.30;1.00;;;;;;5061483;28;20191;-77
2022/05/03 11:11:38;;;;;;;0.47;0.47;;;25.90;1.00;;;;;;5061725;28;20195;-77
2022/05/03 11:14:05;;;;;;;0.40;0.40;;;25.90;1.00;;;;;;5061482;28;20190;-78
2022/05/03 11:16:34;;;;;;;0.40;0.40;;;25.50;1.00;;;;;;5060823;28;20345;-78
2022/05/03 11:19:08;;;;;;;0.47;0.47;;;25.50;1.00;;;;;;5060424;28;20167;-76
2022/05/03 11:21:34;;;;;;;0.50;0.50;;;25.50;1.00;;;;;;5057980;28;20203;-78
2022/05/03 11:24:00;;;;;;;0.40;0.40;;;25.50;1.00;;;;;;5055969;28;20179;-77
2022/05/03 11:26:26;;;;;;;0.43;0.43;;;25.30;1.00;;;;;;5056258;28;20171;-77
2022/05/03 11:28:52;;;;;;;0.40;0.40;;;24.90;1.00;;;;;;5057699;28;20179;-76
2022/05/03 11:31:22;;;;;;;0.60;0.60;;;25.30;1.00;;;;;;5063471;28;20195;-77
2022/05/03 11:33:54;;;;;;;0.47;0.47;;;25.60;1.00;;;;;;5064541;28;20182;-77
2022/05/03 11:36:20;;;;;;;0.40;0.40;;;25.60;1.00;;;;;;5062951;28;20203;-76
2022/05/03 11:38:50;;;;;;;0.40;0.40;;;24.70;1.00;;;;;;5064062;28;20171;-76
2022/05/03 11:41:23;;;;;;;0.47;0.47;;;25.10;1.00;;;;;;5063375;28;20221;-77
2022/05/03 11:43:49;;;;;;;0.40;0.40;;;25.60;1.00;;;;;;5067774;28;20258;-77
2022/05/03 11:46:19;;;;;;;0.40;0.40;;;25.00;1.00;;;;;;5065744;28;20175;-78
2022/05/03 11:48:50;;;;;;;0.37;0.37;;;25.20;1.00;;;;;;5068506;28;20179;-76
2022/05/03 11:56:46;;;;;;;0.37;0.37;;;23.30;1.00;;;;;;5064211;28;20214;-78
2022/05/03 11:59:15;;;;;;;0.33;0.33;;;23.00;1.00;;;;;;5073683;28;20189;-78
2022/05/03 12:01:41;;;;;;;0.33;0.33;;;22.30;1.00;;;;;;5073976;28;20210;-77
2022/05/03 12:04:20;;;;;;;0.53;0.53;;;21.80;1.00;;;;;;5081796;28;20187;-81
2022/05/03 12:06:49;;;;;;;0.33;0.33;;;21.60;1.00;;;;;;5060784;28;20210;-79
2022/05/03 12:09:18;;;;;;;0.40;0.40;;;21.60;1.00;;;;;;5071984;28;20206;-79
2022/05/03 12:14:42;;;;;;;0.50;0.50;;;21.20;1.00;;;;;;5070793;28;20557;-78
2022/05/03 12:17:08;;;;;;;0.40;0.40;;;20.10;1.00;;;;;;5057460;28;20699;-80
2022/05/03 12:19:35;;;;;;;0.40;0.40;;;19.30;1.00;;;;;;5070704;28;20208;-79
2022/05/03 12:22:12;;;;;;;0.40;0.40;;;19.00;1.00;;;;;;5078686;28;20199;-82
2022/05/03 12:24:41;;;;;;;0.40;0.40;;;18.40;1.00;;;;;;5078897;28;20183;-81
2022/05/03 12:27:15;;;;;;;0.40;0.40;;;17.90;1.00;;;;;;5068055;28;20179;-78
2022/05/03 12:29:42;;;;;;;0.40;0.40;;;17.60;99.90;;;;;;5071686;28;20200;-79
2022/05/03 12:32:15;;;;;;;0.40;0.40;;;17.10;1.10;;;;;;5085485;28;20250;-78
2022/05/03 12:34:53;;;;;;;0.40;0.40;;;16.70;1.00;;;;;;5060802;28;20213;-81
2022/05/03 12:37:20;;;;;;;0.57;0.57;;;15.50;99.90;;;;;;5076346;28;20191;-80
2022/05/03 12:39:47;;;;;;;0.50;0.50;;;12.90;1.00;;;;;;5059138;28;20207;-82
2022/05/03 12:42:15;;;;;;;0.50;0.50;;;12.50;1.00;;;;;;5064131;28;20293;-81
2022/05/03 12:44:57;;;;;;;0.63;0.63;;;12.20;1.00;;;;;;5062095;28;20226;-79
2022/05/03 12:47:23;;;;;;;0.53;0.53;;;11.40;1.00;;;;;;5073897;28;20178;-78
2022/05/03 12:49:50;;;;;;;0.53;0.53;;;12.00;99.90;;;;;;5083824;28;20186;-83
2022/05/03 12:52:16;;;;;;;0.50;0.50;;;12.10;1.00;;;;;;5070988;28;20224;-81
2022/05/03 12:54:43;;;;;;;0.73;0.73;;;12.00;78.80;;;;;;5080758;28;20167;-81
2022/05/03 12:59:55;;;;;;;0.50;0.50;;;11.60;99.90;;;;;;5059078;28;20201;-80
2022/05/03 13:02:24;;;;;;;0.70;0.70;;;11.70;99.90;;;;;;5066884;28;20353;-80
2022/05/03 13:04:50;;;;;;;0.63;0.63;;;11.80;99.90;;;;;;5055837;28;20175;-80
2022/05/03 13:07:16;;;;;;;0.60;0.60;;;11.90;99.90;;;;;;5057487;28;20639;-81
2022/05/03 13:09:42;;;;;;;0.60;0.60;;;12.00;99.90;;;;;;5055914;28;20556;-80
2022/05/03 13:12:09;;;;;;;0.50;0.50;;;12.10;99.90;;;;;;5057067;28;20194;-80
2022/05/03 13:14:36;;;;;;;0.50;0.50;;;12.20;99.90;;;;;;5055663;28;20179;-78
2022/05/03 13:17:01;;;;;;;0.40;0.40;;;12.30;99.90;;;;;;5054834;28;20595;-78
2022/05/03 13:19:27;;;;;;;0.60;0.60;;;12.60;99.90;;;;;;5066881;28;20174;-77
2022/05/03 13:21:56;;;;;;;0.60;0.60;;;12.80;99.90;;;;;;5058388;28;20219;-78
2022/05/03 13:24:23;;;;;;;0.60;0.60;;;12.60;99.90;;;;;;5067584;28;20193;-77
2022/05/03 13:26:48;;;;;;;0.50;0.50;;;12.40;99.90;;;;;;5054419;28;20183;-77
2022/05/03 13:29:17;;;;;;;0.50;0.50;;;12.30;99.90;;;;;;5053687;28;20656;-78
2022/05/03 13:31:46;;;;;;;0.50;0.50;;;12.40;99.90;;;;;;5054245;28;20195;-79
2022/05/03 13:34:13;;;;;;;0.50;0.50;;;12.30;99.90;;;;;;5055113;28;20182;-78
2022/05/03 13:42:09;;;;;;;0.60;0.60;;;12.70;99.90;;;;;;5065263;28;20228;-77
2022/05/03 13:44:37;;;;;;;0.50;0.50;;;13.00;99.90;;;;;;5066158;28;20269;-78
2022/05/03 13:47:04;;;;;;;0.60;0.60;;;13.10;99.90;;;;;;5062178;28;20175;-79
2022/05/03 13:49:29;;;;;;;0.60;0.60;;;13.10;99.90;;;;;;5053718;28;20179;-79
2022/05/03 13:51:55;;;;;;;0.50;0.50;;;13.10;99.90;;;;;;5061662;28;20232;-78
2022/05/03 13:54:21;;;;;;;0.60;0.60;;;13.00;99.90;;;;;;5061637;28;20656;-77
2022/05/03 13:56:46;;;;;;;0.63;0.63;;;13.00;99.90;;;;;;5053405;28;20582;-79
2022/05/03 13:59:12;;;;;;;0.60;0.60;;;13.10;99.90;;;;;;5070924;28;20167;-77
2022/05/03 14:01:38;;;;;;;0.40;0.40;;;13.10;99.90;;;;;;5073873;28;20198;-78
2022/05/03 14:04:05;;;;;;;0.60;0.60;;;12.90;99.90;;;;;;5072051;28;20805;-77
2022/05/03 14:06:31;;;;;;;0.40;0.40;;;13.10;99.90;;;;;;5065906;28;20182;-78